.
WxDataArchive / Data Records for 2012-03-11
2012-03-10 March 2012 2012-03-12

Data Records for Sunday, 11 March 2012

Time	Temp	Chill	HIndex	Humid	Dewpt	 Wind 	HiWind	WindDir	Rain 	Barom 
-----	----	-----	------	-----	-----	------	------	-------	-----	----- 
00:00	40.1	40.1	40.1	57	26.1	0	2	248	0.00	30.321 
00:05	40.2	40.2	40.2	57	26.2	0	2	248	0.00	30.321 
00:10	40.3	40.3	40.3	57	26.3	1	3	248	0.00	30.321 
00:15	40.3	40.3	40.3	56	25.9	0	3	248	0.00	30.313 
00:20	40.3	40.3	40.3	56	25.9	0	1	248	0.00	30.313 
00:25	40.2	40.2	40.2	56	25.8	0	0	---	0.00	30.313 
00:30	40.1	40.1	40.1	57	26.1	0	2	248	0.00	30.311 
00:35	39.9	39.9	39.9	57	25.9	0	2	248	0.00	30.311 
00:40	40.1	40.1	40.1	57	26.1	0	3	248	0.00	30.311 
00:45	40.1	40.1	40.1	56	25.7	0	1	248	0.00	30.306 
00:50	40.2	40.2	40.2	56	25.8	0	3	248	0.00	30.306 
00:55	40.3	40.3	40.3	56	25.9	0	1	248	0.00	30.306 
01:00	40.3	40.3	40.3	56	25.9	0	2	248	0.00	30.306 
01:05	40.2	40.2	40.2	56	25.8	0	1	248	0.00	30.306 
01:10	40.1	40.1	40.1	56	25.7	0	1	248	0.00	30.306 
01:15	39.8	39.8	39.8	57	25.8	0	1	248	0.00	30.306 
01:20	39.6	39.6	39.6	57	25.6	0	1	248	0.00	30.306 
01:25	39.6	39.6	39.6	57	25.6	0	3	248	0.00	30.306 
01:30	39.6	39.6	39.6	57	25.6	0	3	248	0.00	30.305 
01:35	39.6	39.6	39.6	57	25.6	0	3	248	0.00	30.305 
01:40	39.6	39.6	39.6	56	25.2	0	1	248	0.00	30.305 
01:45	39.6	39.6	39.6	56	25.2	0	1	248	0.00	30.305 
01:50	39.6	39.6	39.6	56	25.2	0	2	248	0.00	30.305 
01:55	39.5	39.5	39.5	56	25.1	0	3	248	0.00	30.305 
03:00	39.6	39.6	39.6	56	25.2	0	2	248	0.00	30.307 
03:05	39.5	39.5	39.5	56	25.1	0	1	248	0.00	30.307 
03:10	39.5	39.5	39.5	56	25.1	0	1	248	0.00	30.307 
03:15	39.3	39.3	39.3	57	25.4	0	2	248	0.00	30.305 
03:20	39.2	39.2	39.2	57	25.3	0	1	248	0.00	30.305 
03:25	38.9	38.9	38.9	58	25.4	0	0	---	0.00	30.305 
03:30	38.8	38.8	38.8	58	25.3	0	2	248	0.00	30.304 
03:35	38.5	38.5	38.5	58	25.0	0	0	---	0.00	30.304 
03:40	38.3	38.3	38.3	58	24.8	0	1	248	0.00	30.304 
03:45	38.0	38.0	38.0	59	25.0	0	1	248	0.00	30.303 
03:50	37.9	37.9	37.9	59	24.9	0	1	248	0.00	30.303 
03:55	37.8	37.8	37.8	60	25.2	0	2	248	0.00	30.303 
04:00	37.6	37.6	37.6	60	25.0	0	1	248	0.00	30.302 
04:05	37.5	37.5	37.5	60	24.9	0	0	---	0.00	30.302 
04:10	37.3	37.3	37.3	61	25.1	0	0	---	0.00	30.302 
04:15	37.2	37.2	37.2	61	25.0	0	1	248	0.00	30.301 
04:20	37.0	37.0	37.0	61	24.8	0	1	248	0.00	30.301 
04:25	37.0	37.0	37.0	61	24.8	0	1	248	0.00	30.301 
04:30	37.0	37.0	37.0	61	24.8	0	0	---	0.00	30.301 
04:35	36.9	36.9	36.9	62	25.1	0	0	---	0.00	30.301 
04:40	36.6	36.6	36.6	62	24.8	0	1	248	0.00	30.301 
04:45	36.5	36.5	36.5	62	24.7	0	1	248	0.00	30.300 
04:50	36.2	36.2	36.2	62	24.5	0	0	---	0.00	30.300 
04:55	36.0	36.0	36.0	63	24.6	0	1	248	0.00	30.300 
05:00	35.8	35.8	35.8	63	24.5	0	0	---	0.00	30.300 
05:05	35.8	35.8	35.8	63	24.5	0	1	248	0.00	30.300 
05:10	35.8	35.8	35.8	64	24.8	0	0	---	0.00	30.300 
05:15	35.6	35.6	35.6	64	24.6	0	0	---	0.00	30.303 
05:20	35.5	35.5	35.5	64	24.5	0	0	---	0.00	30.303 
05:25	35.3	35.3	35.3	64	24.4	0	0	---	0.00	30.303 
05:30	35.2	35.2	35.2	64	24.3	0	0	---	0.00	30.311 
05:35	35.0	35.0	35.0	64	24.1	0	0	---	0.00	30.311 
05:40	34.9	34.9	34.9	65	24.3	0	0	---	0.00	30.311 
05:45	34.6	34.6	34.6	65	24.1	0	0	---	0.00	30.318 
05:50	34.4	34.4	34.4	65	23.9	0	0	---	0.00	30.318 
05:55	34.1	34.1	34.1	65	23.6	0	0	---	0.00	30.318 
06:00	33.8	33.8	33.8	66	23.7	0	0	---	0.00	30.320 
06:05	33.5	33.5	33.5	67	23.7	0	0	---	0.00	30.320 
06:10	33.4	33.4	33.4	67	23.6	0	0	---	0.00	30.320 
06:15	33.1	33.1	33.1	67	23.4	0	0	---	0.00	30.323 
06:20	32.9	32.9	32.9	68	23.5	0	0	---	0.00	30.323 
06:25	32.9	32.9	32.9	69	23.9	0	0	---	0.00	30.323 
06:30	33.1	33.1	33.1	69	24.1	0	0	---	0.00	30.324 
06:35	33.1	33.1	33.1	69	24.1	0	0	---	0.00	30.324 
06:40	33.2	33.2	33.2	69	24.2	0	1	248	0.00	30.324 
06:45	33.2	33.2	33.2	69	24.2	0	0	---	0.00	30.325 
06:50	33.1	33.1	33.1	69	24.1	0	0	---	0.00	30.325 
06:55	33.1	33.1	33.1	69	24.1	0	0	---	0.00	30.325 
07:00	33.1	33.1	33.1	68	23.7	0	0	---	0.00	30.333 
07:05	32.9	32.9	32.9	69	23.9	0	0	---	0.00	30.333 
07:10	32.8	32.8	32.8	69	23.8	0	0	---	0.00	30.333 
07:15	32.8	32.8	32.8	69	23.8	0	0	---	0.00	30.333 
07:20	32.7	32.7	32.7	69	23.7	0	0	---	0.00	30.333 
07:25	32.5	32.5	32.5	69	23.5	0	0	---	0.00	30.333 
07:30	32.1	32.1	32.1	70	23.4	0	0	---	0.00	30.340 
07:35	31.8	31.8	31.8	70	23.2	0	0	---	0.00	30.340 
07:40	31.5	31.5	31.5	71	23.2	0	0	---	0.00	30.340 
07:45	31.2	31.2	31.2	71	22.9	0	0	---	0.00	30.342 
07:50	30.7	30.7	30.7	71	22.4	0	0	---	0.00	30.342 
07:55	30.4	30.4	30.4	71	22.1	0	0	---	0.00	30.342 
08:00	30.1	30.1	30.1	72	22.2	0	0	---	0.00	30.345 
08:05	30.0	30.0	30.0	72	22.1	0	0	---	0.00	30.345 
08:10	29.7	29.7	29.7	72	21.8	0	0	---	0.00	30.345 
08:15	29.5	29.5	29.5	74	22.3	0	0	---	0.00	30.350 
08:20	29.5	29.5	29.5	75	22.6	0	0	---	0.00	30.350 
08:25	29.7	29.7	29.7	76	23.1	0	0	---	0.00	30.350 
08:30	30.3	30.3	30.3	75	23.3	0	0	---	0.00	30.347 
08:35	31.0	31.0	31.0	74	23.7	0	0	---	0.00	30.347 
08:40	31.8	31.8	31.8	73	24.1	0	0	---	0.00	30.347 
08:45	32.4	32.4	32.4	72	24.4	0	0	---	0.00	30.347 
08:50	32.9	32.9	32.9	72	24.9	0	0	---	0.00	30.347 
08:55	33.8	33.8	33.8	71	25.4	0	0	---	0.00	30.347 
09:00	34.7	34.7	34.7	69	25.6	0	0	---	0.00	30.345 
09:05	35.5	35.5	35.5	69	26.4	0	0	---	0.00	30.345 
09:10	36.0	36.0	36.0	67	26.1	0	0	---	0.00	30.345 
09:15	36.5	36.5	36.5	66	26.2	0	0	---	0.00	30.355 
09:20	37.0	37.0	37.0	65	26.3	0	0	---	0.00	30.355 
09:25	37.6	37.6	37.6	63	26.2	0	1	135	0.00	30.355 
09:30	38.5	38.5	38.5	61	26.2	0	1	135	0.00	30.356 
09:35	39.5	39.5	39.5	58	26.0	0	2	135	0.00	30.356 
09:40	40.5	40.5	40.5	57	26.5	0	1	135	0.00	30.356 
09:45	41.2	41.2	41.2	56	26.7	0	1	135	0.00	30.361 
09:50	41.8	41.8	41.8	53	25.9	0	1	135	0.00	30.361 
09:55	42.3	42.3	42.3	52	25.9	0	2	158	0.00	30.361 
10:00	43.1	43.1	43.1	51	26.2	0	1	158	0.00	30.360 
10:05	43.8	43.8	43.8	50	26.4	0	1	158	0.00	30.360 
10:10	44.5	44.5	44.5	49	26.5	0	1	158	0.00	30.360 
10:15	45.1	45.1	45.1	48	26.6	0	2	158	0.00	30.351 
10:20	45.8	45.8	45.8	46	26.2	0	3	270	0.00	30.351 
10:25	46.4	46.4	46.4	45	26.2	1	3	270	0.00	30.351 
10:30	47.0	47.0	47.0	43	25.7	1	4	248	0.00	30.354 
10:35	47.6	47.6	47.6	43	26.2	1	3	248	0.00	30.354 
10:40	48.2	48.2	48.2	42	26.2	1	4	248	0.00	30.354 
10:45	48.8	48.8	48.8	42	26.7	1	4	248	0.00	30.351 
10:50	49.4	49.4	49.4	41	26.7	1	3	248	0.00	30.351 
10:55	50.1	50.1	50.1	40	26.7	1	4	248	0.00	30.351 
11:00	50.7	50.7	50.7	40	27.3	1	4	248	0.00	30.346 
11:05	51.4	51.4	51.4	41	28.5	0	2	248	0.00	30.346 
11:10	52.0	52.0	52.0	37	26.5	1	5	248	0.00	30.346 
11:15	52.6	52.6	52.6	38	27.7	1	4	248	0.00	30.346 
11:20	52.9	52.9	52.9	35	26.0	2	4	248	0.00	30.346 
11:25	53.2	53.2	53.2	36	26.9	1	4	248	0.00	30.346 
11:30	53.5	53.5	53.5	36	27.2	2	6	248	0.00	30.344 
11:35	53.8	53.8	53.8	34	26.1	2	5	248	0.00	30.344 
11:40	54.1	54.1	54.1	35	27.1	2	6	225	0.00	30.344 
11:45	54.4	54.4	54.4	34	26.6	2	7	248	0.00	30.343 
11:50	54.8	54.8	54.8	35	27.7	1	5	248	0.00	30.343 
11:55	55.4	55.4	55.4	34	27.5	1	3	248	0.00	30.343 
12:00	56.0	56.0	56.0	32	26.6	2	4	248	0.00	30.339 
12:05	56.3	56.3	56.3	33	27.6	2	5	248	0.00	30.339 
12:10	56.7	56.7	56.7	31	26.4	1	3	248	0.00	30.339 
12:15	57.3	57.3	57.3	31	26.9	1	3	248	0.00	30.338 
12:20	57.5	57.5	57.5	31	27.1	3	5	248	0.00	30.338 
12:25	57.8	57.8	57.8	31	27.4	1	4	248	0.00	30.338 
12:30	58.3	58.3	58.3	32	28.6	1	4	45	0.00	30.330 
12:35	58.9	58.9	58.9	31	28.3	1	5	248	0.00	30.330 
12:40	59.0	59.0	59.0	29	26.8	1	5	248	0.00	30.330 
12:45	59.3	59.3	59.3	29	27.1	2	4	248	0.00	30.328 
12:50	59.3	59.3	59.3	29	27.1	2	3	315	0.00	30.328 
12:55	59.6	59.6	59.6	30	28.1	1	5	248	0.00	30.328 
13:00	59.9	59.9	59.9	28	26.7	1	3	248	0.00	30.322 
13:05	60.4	60.4	60.4	29	28.0	1	3	270	0.00	30.322 
13:10	60.9	60.9	60.9	29	28.4	1	3	248	0.00	30.322 
13:15	61.0	61.0	61.0	29	28.5	1	4	270	0.00	30.321 
13:20	61.5	61.5	61.5	29	29.0	0	2	270	0.00	30.321 
13:25	62.0	62.0	62.0	27	27.6	1	4	270	0.00	30.321 
13:30	62.1	62.1	62.1	26	26.8	2	5	248	0.00	30.313 
13:35	62.1	62.1	62.1	27	27.7	1	3	248	0.00	30.313 
13:40	62.1	62.1	62.1	29	29.5	1	4	248	0.00	30.313 
13:45	62.4	62.4	62.4	27	28.0	1	5	270	0.00	30.305 
13:50	62.9	62.9	62.9	26	27.5	1	4	248	0.00	30.305 
13:55	63.2	63.2	63.2	28	29.6	1	4	248	0.00	30.305 
14:00	63.9	63.9	63.9	27	29.3	1	4	248	0.00	30.299 
14:05	64.3	64.3	64.3	25	27.7	1	4	248	0.00	30.299 
14:10	64.5	64.5	64.5	24	26.9	2	5	248	0.00	30.299 
14:15	64.5	64.5	64.5	25	27.9	2	4	248	0.00	30.289 
14:20	64.7	64.7	64.7	25	28.1	1	5	248	0.00	30.289 
14:25	64.8	64.8	64.8	25	28.2	2	7	248	0.00	30.289 
14:30	64.8	64.8	64.8	24	27.2	2	5	248	0.00	30.285 
14:35	64.8	64.8	64.8	25	28.2	2	7	248	0.00	30.285 
14:40	65.0	65.0	65.0	25	28.3	2	6	248	0.00	30.285 
14:45	65.6	65.6	65.6	24	27.8	2	5	270	0.00	30.273 
14:50	66.0	66.0	66.0	25	29.2	2	6	270	0.00	30.273 
14:55	65.8	65.8	65.8	24	28.0	2	7	248	0.00	30.273 
15:00	65.3	65.3	65.3	25	28.6	2	9	248	0.00	30.270 
15:05	65.2	65.2	65.2	26	29.5	1	8	248	0.00	30.270 
15:10	65.3	65.3	65.3	27	30.5	1	7	90	0.00	30.270 
15:15	65.2	65.2	65.2	26	29.5	2	5	248	0.00	30.263 
15:20	64.5	64.5	64.5	25	27.9	2	7	248	0.00	30.263 
15:25	64.3	64.3	64.3	27	29.6	2	5	248	0.00	30.263 
15:30	64.7	64.7	64.7	28	30.8	2	5	248	0.00	30.257 
15:35	65.2	65.2	65.2	27	30.4	2	5	248	0.00	30.257 
15:40	65.3	65.3	65.3	27	30.5	2	6	248	0.00	30.257 
15:45	65.2	65.2	65.2	28	31.3	2	6	248	0.00	30.253 
15:50	65.3	65.3	65.3	27	30.5	1	4	248	0.00	30.253 
15:55	65.6	65.6	65.6	28	31.6	1	4	248	0.00	30.253 
16:00	66.0	66.0	66.0	28	32.0	1	4	248	0.00	30.247 
16:05	66.4	66.4	66.4	27	31.4	2	5	248	0.00	30.247 
16:10	66.6	66.6	66.6	27	31.6	1	6	248	0.00	30.247 
16:15	66.9	66.9	66.9	28	32.7	1	4	248	0.00	30.241 
16:20	67.3	67.3	67.3	28	33.1	1	5	45	0.00	30.241 
16:25	66.9	66.9	66.9	26	30.9	2	7	248	0.00	30.241 
16:30	66.3	66.3	66.3	29	33.1	0	2	315	0.00	30.239 
16:35	65.6	65.6	65.6	28	31.6	2	5	248	0.00	30.239 
16:40	65.3	65.3	65.3	29	32.2	1	3	202	0.00	30.239 
16:45	65.5	65.5	65.5	30	33.2	1	4	248	0.00	30.232 
16:50	65.8	65.8	65.8	27	30.9	2	5	112	0.00	30.232 
16:55	65.8	65.8	65.8	28	31.8	1	4	248	0.00	30.232 
17:00	65.8	65.8	65.8	27	30.9	1	4	248	0.00	30.225 
17:05	66.0	66.0	66.0	28	32.0	1	4	45	0.00	30.225 
17:10	66.0	66.0	66.0	30	33.7	1	5	68	0.00	30.225 
17:15	66.3	66.3	66.3	29	33.1	1	5	248	0.00	30.219 
17:20	66.4	66.4	66.4	28	32.3	1	3	248	0.00	30.219 
17:25	66.3	66.3	66.3	28	32.2	1	3	248	0.00	30.219 
17:30	66.1	66.1	66.1	29	32.9	1	4	248	0.00	30.213 
17:35	66.0	66.0	66.0	28	32.0	1	3	248	0.00	30.213 
17:40	65.8	65.8	65.8	27	30.9	1	4	248	0.00	30.213 
17:45	65.8	65.8	65.8	28	31.8	1	4	248	0.00	30.212 
17:50	65.5	65.5	65.5	28	31.5	1	3	248	0.00	30.212 
17:55	65.2	65.2	65.2	28	31.3	1	3	0	0.00	30.212 
18:00	65.2	65.2	65.2	28	31.3	1	3	292	0.00	30.213 
18:05	65.2	65.2	65.2	29	32.1	1	3	225	0.00	30.213 
18:10	65.0	65.0	65.0	28	31.1	1	4	270	0.00	30.213 
18:15	64.8	64.8	64.8	29	31.8	0	2	270	0.00	30.213 
18:20	64.3	64.3	64.3	31	33.0	0	2	270	0.00	30.213 
18:25	63.9	63.9	63.9	31	32.7	0	1	270	0.00	30.213 
18:30	63.4	63.4	63.4	32	33.0	0	2	270	0.00	30.214 
18:35	63.1	63.1	63.1	31	32.0	1	3	270	0.00	30.214 
18:40	63.1	63.1	63.1	32	32.8	1	4	135	0.00	30.214 
18:45	62.9	62.9	62.9	31	31.8	0	2	112	0.00	30.216 
18:50	62.7	62.7	62.7	33	33.2	0	1	112	0.00	30.216 
18:55	62.4	62.4	62.4	33	32.9	0	2	112	0.00	30.216 
19:00	62.1	62.1	62.1	34	33.4	0	1	112	0.00	30.217 
19:05	62.0	62.0	62.0	34	33.3	0	1	112	0.00	30.217 
19:10	61.8	61.8	61.8	34	33.1	0	2	112	0.00	30.217 
19:15	61.5	61.5	61.5	34	32.9	0	1	112	0.00	30.219 
19:20	61.5	61.5	61.5	33	32.1	0	2	112	0.00	30.219 
19:25	61.3	61.3	61.3	34	32.7	0	0	---	0.00	30.219 
19:30	61.2	61.2	61.2	35	33.3	0	1	112	0.00	30.225 
19:35	61.0	61.0	61.0	34	32.4	0	1	112	0.00	30.225 
19:40	61.0	61.0	61.0	34	32.4	0	2	112	0.00	30.225 
19:45	60.9	60.9	60.9	35	33.1	0	2	112	0.00	30.220 
19:50	60.7	60.7	60.7	36	33.6	0	1	112	0.00	30.220 
19:55	60.5	60.5	60.5	36	33.4	0	1	112	0.00	30.220 
20:00	60.2	60.2	60.2	37	33.8	0	1	112	0.00	30.219 
20:05	59.9	59.9	59.9	37	33.6	0	2	112	0.00	30.219 
20:10	59.8	59.8	59.8	37	33.5	0	2	112	0.00	30.219 
20:15	59.6	59.6	59.6	38	34.0	0	2	112	0.00	30.214 
20:20	59.6	59.6	59.6	38	34.0	0	3	112	0.00	30.214 
20:25	59.5	59.5	59.5	39	34.5	0	2	112	0.00	30.214 
20:30	59.3	59.3	59.3	39	34.3	0	2	112	0.00	30.216 
20:35	59.3	59.3	59.3	39	34.3	0	1	112	0.00	30.216 
20:40	59.2	59.2	59.2	39	34.3	0	3	112	0.00	30.216 
20:45	58.9	58.9	58.9	40	34.6	0	2	112	0.00	30.212 
20:50	58.7	58.7	58.7	40	34.4	1	3	112	0.00	30.212 
20:55	58.7	58.7	58.7	40	34.4	0	2	112	0.00	30.212 
21:00	58.6	58.6	58.6	41	35.0	0	2	112	0.00	30.209 
21:05	58.4	58.4	58.4	41	34.8	0	1	112	0.00	30.209 
21:10	58.1	58.1	58.1	42	35.1	0	1	112	0.00	30.209 
21:15	57.6	57.6	57.6	43	35.3	0	1	112	0.00	30.204 
21:20	57.2	57.2	57.2	43	34.9	0	1	112	0.00	30.204 
21:25	56.6	56.6	56.6	44	34.9	0	0	---	0.00	30.204 
21:30	56.0	56.0	56.0	45	35.0	0	0	---	0.00	30.201 
21:35	55.4	55.4	55.4	46	35.0	0	0	---	0.00	30.201 
21:40	54.7	54.7	54.7	48	35.4	0	0	---	0.00	30.201 
21:45	53.9	53.9	53.9	49	35.2	0	1	112	0.00	30.201 
21:50	53.2	53.2	53.2	50	35.0	0	0	---	0.00	30.201 
21:55	52.8	52.8	52.8	51	35.2	0	0	---	0.00	30.201 
22:00	52.3	52.3	52.3	51	34.7	0	0	---	0.00	30.201 
22:05	51.7	51.7	51.7	52	34.6	0	0	---	0.00	30.201 
22:10	51.3	51.3	51.3	53	34.8	0	0	---	0.00	30.201 
22:15	50.8	50.8	50.8	54	34.8	0	0	---	0.00	30.194 
22:20	50.4	50.4	50.4	55	34.8	0	0	---	0.00	30.194 
22:25	50.1	50.1	50.1	56	35.0	0	0	---	0.00	30.194 
22:30	49.9	49.9	49.9	57	35.3	0	0	---	0.00	30.196 
22:35	49.6	49.6	49.6	57	35.0	0	0	---	0.00	30.196 
22:40	49.4	49.4	49.4	57	34.8	0	0	---	0.00	30.196 
22:45	48.9	48.9	48.9	58	34.8	0	0	---	0.00	30.194 
22:50	48.6	48.6	48.6	59	34.9	0	0	---	0.00	30.194 
22:55	48.2	48.2	48.2	59	34.6	0	0	---	0.00	30.194 
23:00	47.9	47.9	47.9	59	34.3	0	0	---	0.00	30.192 
23:05	47.6	47.6	47.6	61	34.8	0	0	---	0.00	30.192 
23:10	47.1	47.1	47.1	61	34.4	0	0	---	0.00	30.192 
23:15	46.8	46.8	46.8	62	34.5	0	0	---	0.00	30.184 
23:20	46.5	46.5	46.5	62	34.2	0	0	---	0.00	30.184 
23:25	46.2	46.2	46.2	63	34.3	0	0	---	0.00	30.184 
23:30	46.1	46.1	46.1	63	34.2	0	0	---	0.00	30.180 
23:35	46.0	46.0	46.0	63	34.1	0	0	---	0.00	30.180 
23:40	45.8	45.8	45.8	64	34.3	0	0	---	0.00	30.180 
23:45	45.8	45.8	45.8	65	34.7	0	0	---	0.00	30.177 
23:50	45.7	45.7	45.7	65	34.6	0	0	---	0.00	30.177 
23:55	45.7	45.7	45.7	66	35.0	0	0	---	0.00	30.177 
20120312 00:00	45.7	45.7	45.7	65	34.6	0	0	---	0.00	30.174 
20120312 00:05	45.7	45.7	45.7	65	34.6	0	0	---	0.00	30.174 
20120312 00:10	45.7	45.7	45.7	66	35.0	0	0	---	0.00	30.174 
20120312 00:15	45.7	45.7	45.7	66	35.0	0	0	---	0.00	30.165 
20120312 00:20	46.0	46.0	46.0	66	35.3	0	0	---	0.00	30.165 
20120312 00:25	46.5	46.5	46.5	64	35.0	0	0	---	0.00	30.165 
20120312 00:30	47.4	47.4	47.4	62	35.0	0	2	112	0.00	30.159 
20120312 00:35	48.8	48.8	48.8	59	35.1	0	2	135	0.00	30.159 
20120312 00:40	49.8	49.8	49.8	57	35.2	0	1	135	0.00	30.159 
20120312 00:45	50.5	50.5	50.5	55	34.9	0	2	135	0.00	30.153 
20120312 00:50	51.3	51.3	51.3	54	35.2	0	2	135	0.00	30.153 
20120312 00:55	51.7	51.7	51.7	53	35.1	0	2	112	0.00	30.153 

CoCoRaHS
IN-AL-39
A2 Web Hosting
Creative Commons License
GoDaddy
search engine by freefind advanced

loaded 2018-11-17 14:15:48 • last modified 2010-11-18 10:43:29
Privacy PolicyDisclaimer
• wx.awcolley.com is powered by PmWiki v.2002016 •
• all content (unless otherwise noted) © 2018 A W Colley